Terminal Aerodrome Forecast
Issued by NWS

Home | Current Version | Previous Version | Text Only | Print | Product List | Glossary On
Versions: 1 2 3 4 5 6 7 8 9 10 11 12 13 14 15 16 17 18 19 20 21 22 23 24 25 26 27
000
FTUS41 KOKX 061729
TAFTEB
TAF
KTEB 061729Z 0618/0718 07006KT P6SM FEW040 OVC070
     FM062100 11005KT P6SM BKN070
     FM070100 VRB03KT P6SM SCT070
     FM071500 17004KT P6SM FEW250=

USA.gov is the U.S. government's official web portal to all federal, state and local government web resources and services.